createdAt,value
2023-05-06T00:00:59.130Z,1010.14
2023-05-06T00:01:59.168Z,1010.14
2023-05-06T00:02:59.201Z,1010.13
2023-05-06T00:03:59.195Z,1010.15
2023-05-06T00:04:59.097Z,1010.19
2023-05-06T00:05:59.102Z,1010.15
2023-05-06T00:06:59.071Z,1010.15
2023-05-06T00:07:59.101Z,1010.12
2023-05-06T00:08:59.051Z,1010.15
2023-05-06T00:09:59.024Z,1010.09
2023-05-06T00:10:59.052Z,1010.07
2023-05-06T00:11:58.999Z,1010.09
2023-05-06T00:12:59.150Z,1010.10
2023-05-06T00:13:58.988Z,1010.10
2023-05-06T00:14:58.975Z,1010.07
2023-05-06T00:15:59.007Z,1010.07
2023-05-06T00:16:58.967Z,1010.07
2023-05-06T00:17:58.948Z,1010.06
2023-05-06T00:18:58.940Z,1010.00
2023-05-06T00:19:59.002Z,1010.00
2023-05-06T00:20:58.926Z,1010.01
2023-05-06T00:21:58.884Z,1010.02
2023-05-06T00:22:58.880Z,1010.05
2023-05-06T00:23:58.905Z,1010.05
2023-05-06T00:24:58.934Z,1010.06
2023-05-06T00:25:58.841Z,1010.10
2023-05-06T00:26:58.851Z,1010.10
2023-05-06T00:27:58.895Z,1010.08
2023-05-06T00:28:58.846Z,1010.09
2023-05-06T00:29:58.841Z,1010.08
2023-05-06T00:30:58.805Z,1010.07
2023-05-06T00:31:58.843Z,1010.03
2023-05-06T00:32:58.819Z,1010.05
2023-05-06T00:33:58.764Z,1010.02
2023-05-06T00:34:58.801Z,1010.03
2023-05-06T00:35:58.755Z,1010.01
2023-05-06T00:36:58.737Z,1010.03
2023-05-06T00:37:58.745Z,1009.97
2023-05-06T00:38:58.733Z,1010.01
2023-05-06T00:39:58.687Z,1009.95
2023-05-06T00:40:58.693Z,1010.00
2023-05-06T00:41:58.683Z,1009.96
2023-05-06T00:42:58.692Z,1009.94
2023-05-06T00:43:58.666Z,1009.97
2023-05-06T00:44:58.641Z,1009.91
2023-05-06T00:45:58.637Z,1009.96
2023-05-06T00:46:58.625Z,1009.92
2023-05-06T00:47:58.687Z,1009.95
2023-05-06T00:48:58.625Z,1009.96
2023-05-06T00:49:58.662Z,1009.92
2023-05-06T00:50:58.586Z,1010.04
2023-05-06T00:51:58.557Z,1010.06
2023-05-06T00:52:58.553Z,1010.07
2023-05-06T00:53:58.586Z,1010.03
2023-05-06T00:54:58.554Z,1010.01
2023-05-06T00:55:58.532Z,1010.03
2023-05-06T00:56:58.572Z,1010.00
2023-05-06T00:57:58.491Z,1009.97
2023-05-06T00:58:58.506Z,1009.95
2023-05-06T00:59:58.471Z,1009.96
2023-05-06T01:00:58.493Z,1009.94
2023-05-06T01:01:58.445Z,1009.95
2023-05-06T01:02:58.603Z,1009.95
2023-05-06T01:03:58.730Z,1009.92
2023-05-06T01:04:58.479Z,1009.88
2023-05-06T01:05:58.412Z,1009.90
2023-05-06T01:06:58.408Z,1009.92
2023-05-06T01:07:58.405Z,1009.86
2023-05-06T01:08:58.364Z,1009.87
2023-05-06T01:09:58.360Z,1009.87
2023-05-06T01:10:58.383Z,1009.87
2023-05-06T01:11:58.378Z,1009.87
2023-05-06T01:12:58.429Z,1009.86
2023-05-06T01:13:58.333Z,1009.88
2023-05-06T01:14:58.309Z,1009.88
2023-05-06T01:15:58.295Z,1009.88
2023-05-06T01:16:58.430Z,1009.92
2023-05-06T01:17:58.316Z,1009.93
2023-05-06T01:18:58.302Z,1009.88
2023-05-06T01:19:58.259Z,1009.94
2023-05-06T01:20:58.296Z,1009.92
2023-05-06T01:21:58.234Z,1009.94
2023-05-06T01:22:58.227Z,1009.95
2023-05-06T01:23:58.616Z,1009.92
2023-05-06T01:24:58.270Z,1009.92
2023-05-06T01:25:58.203Z,1009.94
2023-05-06T01:26:58.179Z,1009.91
2023-05-06T01:27:58.168Z,1009.95
2023-05-06T01:28:58.185Z,1009.98
2023-05-06T01:29:58.148Z,1009.98
2023-05-06T01:30:58.189Z,1009.98
2023-05-06T01:31:58.126Z,1009.93
2023-05-06T01:32:58.150Z,1009.92
2023-05-06T01:33:58.104Z,1009.97
2023-05-06T01:34:58.109Z,1009.94
2023-05-06T01:35:58.106Z,1009.95
2023-05-06T01:36:58.100Z,1009.96
2023-05-06T01:37:58.054Z,1009.95
2023-05-06T01:38:58.087Z,1009.99
2023-05-06T01:39:58.070Z,1009.96
2023-05-06T01:40:58.032Z,1009.96
2023-05-06T01:41:58.024Z,1009.99
2023-05-06T01:42:58.100Z,1009.96
2023-05-06T01:43:58.007Z,1009.92
2023-05-06T01:44:57.998Z,1009.93
2023-05-06T01:45:57.981Z,1009.95
2023-05-06T01:46:57.983Z,1009.96
2023-05-06T01:47:57.993Z,1009.98
2023-05-06T01:48:58.087Z,1009.98
2023-05-06T01:49:57.949Z,1010.01
2023-05-06T01:50:57.984Z,1010.04
2023-05-06T01:51:57.969Z,1010.02
2023-05-06T01:52:57.910Z,1010.04
2023-05-06T01:53:57.897Z,1010.04
2023-05-06T01:54:57.881Z,1010.04
2023-05-06T01:55:57.854Z,1010.03
2023-05-06T01:56:57.861Z,1010.04
2023-05-06T01:57:57.873Z,1010.04
2023-05-06T01:58:59.385Z,1010.05
2023-05-06T01:59:57.817Z,1010.00
2023-05-06T02:00:57.798Z,1009.99
2023-05-06T02:01:57.817Z,1009.98
2023-05-06T02:02:57.905Z,1009.98
2023-05-06T02:03:57.882Z,1009.98
2023-05-06T02:04:57.794Z,1010.01
2023-05-06T02:05:57.748Z,1009.97
2023-05-06T02:06:57.762Z,1010.02
2023-05-06T02:07:57.750Z,1010.01
2023-05-06T02:08:57.745Z,1010.03
2023-05-06T02:09:57.706Z,1009.98
2023-05-06T02:10:57.695Z,1010.01
2023-05-06T02:11:57.706Z,1010.01
2023-05-06T02:12:57.799Z,1010.04
2023-05-06T02:13:57.655Z,1010.02
2023-05-06T02:14:57.674Z,1010.05
2023-05-06T02:15:57.715Z,1010.06
2023-05-06T02:16:57.642Z,1010.10
2023-05-06T02:17:57.671Z,1010.06
2023-05-06T02:18:57.601Z,1010.06
2023-05-06T02:19:57.598Z,1010.04
2023-05-06T02:20:57.587Z,1010.09
2023-05-06T02:21:57.652Z,1010.10
2023-05-06T02:22:57.552Z,1010.09
2023-05-06T02:23:57.625Z,1010.06
2023-05-06T02:24:57.533Z,1010.13
2023-05-06T02:25:57.534Z,1010.08
2023-05-06T02:26:57.528Z,1010.08
2023-05-06T02:27:57.502Z,1010.04
2023-05-06T02:28:57.501Z,1010.03
2023-05-06T02:29:57.487Z,1010.05
2023-05-06T02:30:57.494Z,1010.04
2023-05-06T02:31:57.592Z,1010.01
2023-05-06T02:32:57.546Z,1010.02
2023-05-06T02:33:57.444Z,1010.02
2023-05-06T02:34:57.443Z,1010.02
2023-05-06T02:35:57.450Z,1010.03
2023-05-06T02:36:57.435Z,1009.99
2023-05-06T02:37:57.396Z,1009.99
2023-05-06T02:38:57.377Z,1009.97
2023-05-06T02:39:57.361Z,1009.97
2023-05-06T02:40:57.381Z,1009.98
2023-05-06T02:41:57.356Z,1009.99
2023-05-06T02:42:57.388Z,1009.96
2023-05-06T02:43:57.362Z,1009.99
2023-05-06T02:44:57.325Z,1009.94
2023-05-06T02:45:57.384Z,1009.96
2023-05-06T02:46:57.296Z,1010.00
2023-05-06T02:47:57.321Z,1009.95
2023-05-06T02:48:57.264Z,1009.97
2023-05-06T02:49:57.277Z,1009.99
2023-05-06T02:50:57.368Z,1009.98
2023-05-06T02:51:57.261Z,1009.98
2023-05-06T02:52:57.226Z,1010.00
2023-05-06T02:53:57.218Z,1009.98
2023-05-06T02:54:57.205Z,1009.97
2023-05-06T02:55:57.198Z,1009.95
2023-05-06T02:56:57.185Z,1009.97
2023-05-06T02:57:57.181Z,1009.96
2023-05-06T02:58:57.166Z,1009.93
2023-05-06T02:59:57.158Z,1009.94
2023-05-06T03:00:57.148Z,1009.92
2023-05-06T03:01:57.134Z,1009.95
2023-05-06T03:02:57.148Z,1009.96
2023-05-06T03:03:57.186Z,1010.01
2023-05-06T03:04:57.096Z,1010.01
2023-05-06T03:05:57.087Z,1009.98
2023-05-06T03:06:57.066Z,1009.97
2023-05-06T03:07:57.082Z,1010.00
2023-05-06T03:08:57.414Z,1010.00
2023-05-06T03:09:57.068Z,1010.00
2023-05-06T03:10:57.031Z,1010.01
2023-05-06T03:11:57.038Z,1010.00
2023-05-06T03:12:57.034Z,1009.99
2023-05-06T03:13:57.004Z,1009.99
2023-05-06T03:14:56.999Z,1010.01
2023-05-06T03:15:56.990Z,1010.02
2023-05-06T03:16:57.038Z,1009.98
2023-05-06T03:17:57.013Z,1009.97
2023-05-06T03:18:56.951Z,1009.98
2023-05-06T03:19:56.947Z,1009.99
2023-05-06T03:20:56.963Z,1010.01
2023-05-06T03:21:56.927Z,1009.99
2023-05-06T03:22:56.963Z,1009.99
2023-05-06T03:23:56.892Z,1009.99
2023-05-06T03:24:56.898Z,1009.98
2023-05-06T03:25:56.864Z,1009.99
2023-05-06T03:26:56.950Z,1009.97
2023-05-06T03:27:56.849Z,1009.99
2023-05-06T03:28:56.845Z,1009.97
2023-05-06T03:29:56.829Z,1009.95
2023-05-06T03:30:56.812Z,1009.93
2023-05-06T03:31:56.925Z,1009.98
2023-05-06T03:32:56.872Z,1009.99
2023-05-06T03:33:56.782Z,1009.99
2023-05-06T03:34:56.776Z,1009.97
2023-05-06T03:35:56.802Z,1009.95
2023-05-06T03:36:56.750Z,1009.95
2023-05-06T03:37:56.743Z,1009.95
2023-05-06T03:38:56.748Z,1009.96
2023-05-06T03:39:56.724Z,1009.99
2023-05-06T03:40:56.723Z,1009.94
2023-05-06T03:41:56.716Z,1009.96
2023-05-06T03:42:56.675Z,1009.98
2023-05-06T03:43:56.679Z,1009.95
2023-05-06T03:44:56.671Z,1009.97
2023-05-06T03:45:56.709Z,1009.96
2023-05-06T03:46:56.644Z,1009.98
2023-05-06T03:47:58.478Z,1010.02
2023-05-06T03:48:56.643Z,1010.01
2023-05-06T03:49:56.602Z,1009.99
2023-05-06T03:50:56.596Z,1009.99
2023-05-06T03:51:56.568Z,1009.98
2023-05-06T03:52:56.591Z,1009.96
2023-05-06T03:53:56.556Z,1010.03
2023-05-06T03:54:56.547Z,1010.03
2023-05-06T03:55:56.558Z,1010.00
2023-05-06T03:56:56.533Z,1009.96
2023-05-06T03:57:56.515Z,1009.97
2023-05-06T03:58:56.519Z,1009.99
2023-05-06T03:59:56.544Z,1010.01
2023-05-06T04:00:56.501Z,1009.98
2023-05-06T04:01:56.589Z,1010.01
2023-05-06T04:02:56.493Z,1010.00
2023-05-06T04:03:56.497Z,1010.01
2023-05-06T04:04:56.467Z,1010.04
2023-05-06T04:05:56.422Z,1010.04
2023-05-06T04:06:56.422Z,1010.01
2023-05-06T04:07:56.400Z,1010.04
2023-05-06T04:08:56.406Z,1010.05
2023-05-06T04:09:56.378Z,1010.02
2023-05-06T04:10:56.369Z,1010.02
2023-05-06T04:11:56.346Z,1010.03
2023-05-06T04:12:56.415Z,1010.01
2023-05-06T04:13:56.374Z,1010.02
2023-05-06T04:14:56.376Z,1010.01
2023-05-06T04:15:56.327Z,1010.00
2023-05-06T04:16:56.308Z,1010.01
2023-05-06T04:17:56.299Z,1010.04
2023-05-06T04:18:56.286Z,1010.02
2023-05-06T04:19:56.307Z,1010.02
2023-05-06T04:20:56.262Z,1010.03
2023-05-06T04:21:56.237Z,1010.02
2023-05-06T04:22:56.243Z,1010.02
2023-05-06T04:23:56.236Z,1010.08
2023-05-06T04:24:56.252Z,1010.10
2023-05-06T04:25:56.197Z,1010.06
2023-05-06T04:26:56.196Z,1010.10
2023-05-06T04:27:56.177Z,1010.11
2023-05-06T04:28:56.219Z,1010.13
2023-05-06T04:29:56.149Z,1010.09
2023-05-06T04:30:56.137Z,1010.09
2023-05-06T04:31:56.167Z,1010.10
2023-05-06T04:32:56.191Z,1010.08
2023-05-06T04:33:56.111Z,1010.12
2023-05-06T04:34:56.103Z,1010.12
2023-05-06T04:35:56.091Z,1010.13
2023-05-06T04:36:56.123Z,1010.12
2023-05-06T04:37:56.109Z,1010.18
2023-05-06T04:38:56.059Z,1010.18
2023-05-06T04:39:56.041Z,1010.21
2023-05-06T04:40:56.039Z,1010.26
2023-05-06T04:41:56.112Z,1010.29
2023-05-06T04:42:56.021Z,1010.27
2023-05-06T04:43:56.004Z,1010.30
2023-05-06T04:44:56.089Z,1010.30
2023-05-06T04:45:55.990Z,1010.28
2023-05-06T04:46:55.996Z,1010.27
2023-05-06T04:47:56.006Z,1010.32
2023-05-06T04:48:55.953Z,1010.32
2023-05-06T04:49:56.001Z,1010.33
2023-05-06T04:50:55.926Z,1010.34
2023-05-06T04:51:56.072Z,1010.35
2023-05-06T04:52:55.920Z,1010.38
2023-05-06T04:53:55.892Z,1010.33
2023-05-06T04:54:55.882Z,1010.37
2023-05-06T04:55:55.876Z,1010.37
2023-05-06T04:56:55.875Z,1010.41
2023-05-06T04:57:55.859Z,1010.45
2023-05-06T04:58:55.854Z,1010.43
2023-05-06T04:59:55.840Z,1010.46
2023-05-06T05:00:55.871Z,1010.42
2023-05-06T05:01:55.819Z,1010.46
2023-05-06T05:02:55.934Z,1010.47
2023-05-06T05:03:55.780Z,1010.46
2023-05-06T05:04:55.807Z,1010.45
2023-05-06T05:05:55.771Z,1010.47
2023-05-06T05:06:55.747Z,1010.48
2023-05-06T05:07:55.781Z,1010.47
2023-05-06T05:08:55.744Z,1010.46
2023-05-06T05:09:55.735Z,1010.46
2023-05-06T05:10:55.728Z,1010.47
2023-05-06T05:11:55.699Z,1010.43
2023-05-06T05:12:55.727Z,1010.46
2023-05-06T05:13:56.895Z,1010.44
2023-05-06T05:14:55.683Z,1010.48
2023-05-06T05:15:55.668Z,1010.46
2023-05-06T05:16:55.676Z,1010.46
2023-05-06T05:17:55.722Z,1010.48
2023-05-06T05:18:55.655Z,1010.48
2023-05-06T05:19:55.614Z,1010.47
2023-05-06T05:20:55.609Z,1010.54
2023-05-06T05:21:55.574Z,1010.54
2023-05-06T05:22:55.578Z,1010.54
2023-05-06T05:23:55.582Z,1010.60
2023-05-06T05:24:55.546Z,1010.56
2023-05-06T05:25:55.539Z,1010.58
2023-05-06T05:26:55.527Z,1010.57
2023-05-06T05:27:55.519Z,1010.55
2023-05-06T05:28:55.518Z,1010.57
2023-05-06T05:29:55.500Z,1010.57
2023-05-06T05:30:55.542Z,1010.57
2023-05-06T05:31:55.462Z,1010.56
2023-05-06T05:32:55.592Z,1010.59
2023-05-06T05:33:55.525Z,1010.60
2023-05-06T05:34:55.540Z,1010.61
2023-05-06T05:35:55.427Z,1010.57
2023-05-06T05:36:55.453Z,1010.57
2023-05-06T05:37:55.404Z,1010.54
2023-05-06T05:38:55.416Z,1010.54
2023-05-06T05:39:55.483Z,1010.55
2023-05-06T05:40:55.425Z,1010.56
2023-05-06T05:41:55.362Z,1010.57
2023-05-06T05:42:55.365Z,1010.50
2023-05-06T05:43:55.762Z,1010.54
2023-05-06T05:44:55.333Z,1010.59
2023-05-06T05:45:55.374Z,1010.58
2023-05-06T05:46:55.323Z,1010.61
2023-05-06T05:47:55.433Z,1010.68
2023-05-06T05:48:55.284Z,1010.66
2023-05-06T05:49:55.272Z,1010.65
2023-05-06T05:50:55.265Z,1010.72
2023-05-06T05:51:55.279Z,1010.65
2023-05-06T05:52:55.264Z,1010.65
2023-05-06T05:53:55.287Z,1010.65
2023-05-06T05:54:55.223Z,1010.65
2023-05-06T05:55:55.205Z,1010.64
2023-05-06T05:56:55.214Z,1010.57
2023-05-06T05:57:55.187Z,1010.62
2023-05-06T05:58:55.176Z,1010.61
2023-05-06T05:59:55.161Z,1010.60
2023-05-06T06:00:55.179Z,1010.60
2023-05-06T06:01:55.168Z,1010.60
2023-05-06T06:02:55.239Z,1010.56
2023-05-06T06:03:55.258Z,1010.59
2023-05-06T06:04:55.185Z,1010.59
2023-05-06T06:05:55.099Z,1010.64
2023-05-06T06:06:55.147Z,1010.59
2023-05-06T06:07:55.069Z,1010.61
2023-05-06T06:08:55.056Z,1010.61
2023-05-06T06:09:55.049Z,1010.58
2023-05-06T06:10:55.058Z,1010.57
2023-05-06T06:11:55.044Z,1010.60
2023-05-06T06:12:55.045Z,1010.62
2023-05-06T06:13:55.004Z,1010.61
2023-05-06T06:14:55.001Z,1010.58
2023-05-06T06:15:54.985Z,1010.59
2023-05-06T06:16:54.974Z,1010.61
2023-05-06T06:17:55.030Z,1010.58
2023-05-06T06:18:54.954Z,1010.60
2023-05-06T06:19:54.946Z,1010.61
2023-05-06T06:20:54.949Z,1010.64
2023-05-06T06:21:54.913Z,1010.61
2023-05-06T06:22:54.918Z,1010.60
2023-05-06T06:23:54.930Z,1010.64
2023-05-06T06:24:54.899Z,1010.63
2023-05-06T06:25:54.900Z,1010.61
2023-05-06T06:26:54.854Z,1010.62
2023-05-06T06:27:54.863Z,1010.58
2023-05-06T06:28:54.844Z,1010.57
2023-05-06T06:29:54.851Z,1010.56
2023-05-06T06:30:54.828Z,1010.57
2023-05-06T06:31:54.837Z,1010.57
2023-05-06T06:32:54.923Z,1010.57
2023-05-06T06:33:54.791Z,1010.58
2023-05-06T06:34:54.790Z,1010.63
2023-05-06T06:35:54.798Z,1010.58
2023-05-06T06:36:54.749Z,1010.65
2023-05-06T06:37:54.739Z,1010.60
2023-05-06T06:38:54.775Z,1010.63
2023-05-06T06:39:54.714Z,1010.58
2023-05-06T06:40:54.705Z,1010.62
2023-05-06T06:41:54.695Z,1010.62
2023-05-06T06:42:54.795Z,1010.57
2023-05-06T06:43:54.694Z,1010.62
2023-05-06T06:44:54.663Z,1010.66
2023-05-06T06:45:54.673Z,1010.57
2023-05-06T06:46:54.636Z,1010.60
2023-05-06T06:47:54.741Z,1010.63
2023-05-06T06:48:54.747Z,1010.63
2023-05-06T06:49:54.611Z,1010.60
2023-05-06T06:50:54.619Z,1010.64
2023-05-06T06:51:54.605Z,1010.66
2023-05-06T06:52:54.640Z,1010.63
2023-05-06T06:53:54.589Z,1010.60
2023-05-06T06:54:54.545Z,1010.58
2023-05-06T06:55:54.581Z,1010.58
2023-05-06T06:56:54.660Z,1010.56
2023-05-06T06:57:54.526Z,1010.54
2023-05-06T06:58:54.514Z,1010.57
2023-05-06T06:59:54.513Z,1010.49
2023-05-06T07:00:54.614Z,1010.57
2023-05-06T07:01:54.555Z,1010.61
2023-05-06T07:02:54.531Z,1010.58
2023-05-06T07:03:54.473Z,1010.58
2023-05-06T07:04:54.444Z,1010.59
2023-05-06T07:05:54.438Z,1010.59
2023-05-06T07:06:54.484Z,1010.61
2023-05-06T07:07:54.436Z,1010.59
2023-05-06T07:08:54.449Z,1010.62
2023-05-06T07:09:54.380Z,1010.62
2023-05-06T07:10:54.374Z,1010.66
2023-05-06T07:11:54.377Z,1010.64
2023-05-06T07:12:54.469Z,1010.60
2023-05-06T07:13:54.350Z,1010.63
2023-05-06T07:14:54.345Z,1010.62
2023-05-06T07:15:54.324Z,1010.62
2023-05-06T07:16:54.349Z,1010.59
2023-05-06T07:17:54.388Z,1010.66
2023-05-06T07:18:54.308Z,1010.62
2023-05-06T07:19:54.303Z,1010.63
2023-05-06T07:20:54.284Z,1010.62
2023-05-06T07:21:54.260Z,1010.64
2023-05-06T07:22:54.276Z,1010.62
2023-05-06T07:23:54.234Z,1010.60
2023-05-06T07:24:54.254Z,1010.59
2023-05-06T07:25:54.266Z,1010.56
2023-05-06T07:26:54.221Z,1010.59
2023-05-06T07:27:54.239Z,1010.59
2023-05-06T07:28:54.185Z,1010.62
2023-05-06T07:29:54.184Z,1010.57
2023-05-06T07:30:54.196Z,1010.57
2023-05-06T07:31:54.144Z,1010.58
2023-05-06T07:32:54.195Z,1010.61
2023-05-06T07:33:54.143Z,1010.58
2023-05-06T07:34:54.131Z,1010.65
2023-05-06T07:35:54.114Z,1010.64
2023-05-06T07:36:54.092Z,1010.64
2023-05-06T07:37:54.121Z,1010.63
2023-05-06T07:38:54.077Z,1010.61
2023-05-06T07:39:54.076Z,1010.57
2023-05-06T07:40:54.058Z,1010.64
2023-05-06T07:41:54.042Z,1010.59
2023-05-06T07:42:54.031Z,1010.58
2023-05-06T07:43:54.029Z,1010.57
2023-05-06T07:44:54.090Z,1010.62
2023-05-06T07:45:54.041Z,1010.61
2023-05-06T07:46:54.096Z,1010.60
2023-05-06T07:47:54.103Z,1010.60
2023-05-06T07:48:53.977Z,1010.65
2023-05-06T07:49:53.951Z,1010.66
2023-05-06T07:50:53.944Z,1010.67
2023-05-06T07:51:53.936Z,1010.67
2023-05-06T07:52:53.922Z,1010.72
2023-05-06T07:53:53.956Z,1010.73
2023-05-06T07:54:53.936Z,1010.73
2023-05-06T07:55:53.911Z,1010.71
2023-05-06T07:56:54.011Z,1010.74
2023-05-06T07:57:53.869Z,1010.68
2023-05-06T07:58:53.885Z,1010.72
2023-05-06T07:59:53.865Z,1010.65
2023-05-06T08:00:53.836Z,1010.67
2023-05-06T08:01:53.820Z,1010.69
2023-05-06T08:02:53.908Z,1010.70
2023-05-06T08:03:53.880Z,1010.68
2023-05-06T08:04:53.913Z,1010.75
2023-05-06T08:05:53.788Z,1010.75
2023-05-06T08:06:53.771Z,1010.73
2023-05-06T08:07:53.778Z,1010.73
2023-05-06T08:08:53.759Z,1010.68
2023-05-06T08:09:53.740Z,1010.66
2023-05-06T08:10:53.733Z,1010.68
2023-05-06T08:11:53.748Z,1010.68
2023-05-06T08:12:53.797Z,1010.69
2023-05-06T08:13:53.696Z,1010.68
2023-05-06T08:14:53.694Z,1010.54
2023-05-06T08:15:53.706Z,1010.66
2023-05-06T08:16:53.718Z,1010.56
2023-05-06T08:17:53.722Z,1010.55
2023-05-06T08:18:53.654Z,1010.57
2023-05-06T08:19:53.640Z,1010.59
2023-05-06T08:20:53.733Z,1010.60
2023-05-06T08:21:53.628Z,1010.61
2023-05-06T08:22:53.612Z,1010.54
2023-05-06T08:23:53.587Z,1010.60
2023-05-06T08:24:53.593Z,1010.63
2023-05-06T08:25:53.654Z,1010.59
2023-05-06T08:26:53.569Z,1010.53
2023-05-06T08:27:53.545Z,1010.57
2023-05-06T08:28:53.543Z,1010.55
2023-05-06T08:29:53.577Z,1010.60
2023-05-06T08:30:53.534Z,1010.55
2023-05-06T08:31:53.596Z,1010.53
2023-05-06T08:32:53.530Z,1010.49
2023-05-06T08:33:54.791Z,1010.51
2023-05-06T08:34:53.586Z,1010.49
2023-05-06T08:35:53.474Z,1010.48
2023-05-06T08:36:53.475Z,1010.53
2023-05-06T08:37:53.464Z,1010.50
2023-05-06T08:38:53.444Z,1010.46
2023-05-06T08:39:53.459Z,1010.46
2023-05-06T08:40:53.443Z,1010.40
2023-05-06T08:41:53.420Z,1010.40
2023-05-06T08:42:53.407Z,1010.41
2023-05-06T08:43:53.393Z,1010.43
2023-05-06T08:44:53.438Z,1010.41
2023-05-06T08:45:53.409Z,1010.40
2023-05-06T08:46:53.383Z,1010.42
2023-05-06T08:47:53.383Z,1010.48
2023-05-06T08:48:53.354Z,1010.40
2023-05-06T08:49:53.340Z,1010.39
2023-05-06T08:50:53.419Z,1010.37
2023-05-06T08:51:53.308Z,1010.36
2023-05-06T08:52:53.330Z,1010.39
2023-05-06T08:53:53.288Z,1010.42
2023-05-06T08:54:53.273Z,1010.42
2023-05-06T08:55:53.347Z,1010.36
2023-05-06T08:56:53.257Z,1010.33
2023-05-06T08:57:53.246Z,1010.35
2023-05-06T08:58:53.264Z,1010.33
2023-05-06T08:59:53.230Z,1010.28
2023-05-06T09:00:53.236Z,1010.28
2023-05-06T09:01:53.211Z,1010.32
2023-05-06T09:02:53.373Z,1010.27
2023-05-06T09:03:53.239Z,1010.29
2023-05-06T09:04:53.186Z,1010.29
2023-05-06T09:05:53.152Z,1010.30
2023-05-06T09:06:53.176Z,1010.31
2023-05-06T09:07:53.466Z,1010.26
2023-05-06T09:08:53.136Z,1010.26
2023-05-06T09:09:53.187Z,1010.27
2023-05-06T09:10:53.112Z,1010.26
2023-05-06T09:11:53.138Z,1010.24
2023-05-06T09:12:53.163Z,1010.25
2023-05-06T09:13:53.078Z,1010.27
2023-05-06T09:14:53.076Z,1010.21
2023-05-06T09:15:53.052Z,1010.24
2023-05-06T09:16:53.304Z,1010.23
2023-05-06T09:17:53.115Z,1010.22
2023-05-06T09:18:53.025Z,1010.21
2023-05-06T09:19:53.015Z,1010.20
2023-05-06T09:20:53.004Z,1010.19
2023-05-06T09:21:53.013Z,1010.16
2023-05-06T09:22:53.037Z,1010.15
2023-05-06T09:23:52.988Z,1010.18
2023-05-06T09:24:52.977Z,1010.15
2023-05-06T09:25:52.982Z,1010.14
2023-05-06T09:26:52.986Z,1010.10
2023-05-06T09:27:52.933Z,1010.11
2023-05-06T09:28:52.937Z,1010.12
2023-05-06T09:29:52.933Z,1010.14
2023-05-06T09:30:52.924Z,1010.15
2023-05-06T09:31:52.890Z,1010.13
2023-05-06T09:32:52.931Z,1010.14
2023-05-06T09:33:52.998Z,1010.11
2023-05-06T09:34:52.916Z,1010.09
2023-05-06T09:35:52.872Z,1010.08
2023-05-06T09:36:52.865Z,1010.03
2023-05-06T09:37:52.865Z,1010.02
2023-05-06T09:38:52.832Z,1010.05
2023-05-06T09:39:52.839Z,1010.04
2023-05-06T09:40:52.836Z,1010.06
2023-05-06T09:41:52.812Z,1010.02
2023-05-06T09:42:52.791Z,1010.00
2023-05-06T09:43:52.855Z,1010.03
2023-05-06T09:44:52.779Z,1009.94
2023-05-06T09:45:52.816Z,1009.95
2023-05-06T09:46:52.783Z,1010.00
2023-05-06T09:47:52.764Z,1009.97
2023-05-06T09:48:52.767Z,1009.96
2023-05-06T09:49:52.733Z,1009.94
2023-05-06T09:50:52.719Z,1009.94
2023-05-06T09:51:52.698Z,1009.90
2023-05-06T09:52:52.709Z,1009.92
2023-05-06T09:53:52.689Z,1009.89
2023-05-06T09:54:52.685Z,1009.89
2023-05-06T09:55:52.662Z,1009.88
2023-05-06T09:56:52.658Z,1009.89
2023-05-06T09:57:52.643Z,1009.84
2023-05-06T09:58:52.720Z,1009.83
2023-05-06T09:59:52.678Z,1009.76
2023-05-06T10:00:52.627Z,1009.75
2023-05-06T10:18:50.663Z,1009.67
2023-05-06T10:19:50.649Z,1009.69
2023-05-06T10:20:50.676Z,1009.62
2023-05-06T10:21:50.619Z,1009.65
2023-05-06T10:22:50.591Z,1009.62
2023-05-06T10:23:50.588Z,1009.57
2023-05-06T10:24:50.579Z,1009.54
2023-05-06T10:25:50.567Z,1009.60
2023-05-06T10:26:50.576Z,1009.60
2023-05-06T10:27:50.576Z,1009.53
2023-05-06T10:28:50.530Z,1009.54
2023-05-06T10:29:50.585Z,1009.55
2023-05-06T10:30:50.555Z,1009.53
2023-05-06T10:31:50.603Z,1009.53
2023-05-06T10:32:50.518Z,1009.49
2023-05-06T10:33:50.486Z,1009.43
2023-05-06T10:34:50.468Z,1009.45
2023-05-06T10:35:50.501Z,1009.40
2023-05-06T10:36:50.471Z,1009.43
2023-05-06T10:37:50.473Z,1009.42
2023-05-06T10:38:50.432Z,1009.39
2023-05-06T10:39:50.430Z,1009.40
2023-05-06T10:40:50.452Z,1009.36
2023-05-06T10:41:50.419Z,1009.38
2023-05-06T10:42:50.428Z,1009.36
2023-05-06T10:43:50.412Z,1009.39
2023-05-06T10:44:50.406Z,1009.42
2023-05-06T10:45:50.424Z,1009.40
2023-05-06T10:46:50.361Z,1009.36
2023-05-06T10:47:50.385Z,1009.33
2023-05-06T10:48:50.331Z,1009.31
2023-05-06T10:49:50.344Z,1009.29
2023-05-06T10:50:50.345Z,1009.02
2023-05-06T10:51:50.309Z,1009.08
2023-05-06T10:52:50.360Z,1009.29
2023-05-06T10:53:50.312Z,1009.26
2023-05-06T10:54:50.410Z,1009.30
2023-05-06T10:55:50.285Z,1009.26
2023-05-06T10:56:50.290Z,1009.15
2023-05-06T10:57:50.253Z,1009.09
2023-05-06T10:58:50.260Z,1009.13
2023-05-06T10:59:50.254Z,1009.12
2023-05-06T11:00:50.243Z,1009.13
2023-05-06T11:01:50.353Z,1009.19
2023-05-06T11:02:50.259Z,1009.22
2023-05-06T11:03:50.234Z,1009.24
2023-05-06T11:04:50.201Z,1009.24
2023-05-06T11:05:50.202Z,1009.27
2023-05-06T11:06:50.196Z,1009.17
2023-05-06T11:07:50.187Z,1009.19
2023-05-06T11:08:50.163Z,1009.21
2023-05-06T11:09:50.163Z,1009.20
2023-05-06T11:10:50.165Z,1009.24
2023-05-06T11:11:50.142Z,1009.25
2023-05-06T11:12:50.229Z,1009.28
2023-05-06T11:13:50.702Z,1009.20
2023-05-06T11:14:50.093Z,1009.18
2023-05-06T11:15:50.187Z,1009.22
2023-05-06T11:16:50.150Z,1009.16
2023-05-06T11:17:50.145Z,1009.14
2023-05-06T11:18:50.040Z,1009.15
2023-05-06T11:19:50.039Z,1009.10
2023-05-06T11:20:50.043Z,1009.14
2023-05-06T11:21:50.711Z,1009.16
2023-05-06T11:22:50.058Z,1009.16
2023-05-06T11:23:50.034Z,1009.18
2023-05-06T11:24:50.059Z,1009.15
2023-05-06T11:25:50.056Z,1009.27
2023-05-06T11:26:50.113Z,1009.12
2023-05-06T11:27:50.953Z,1009.07
2023-05-06T11:28:50.002Z,1009.08
2023-05-06T11:29:50.008Z,1009.25
2023-05-06T11:30:50.094Z,1009.09
2023-05-06T11:31:50.009Z,1009.10
2023-05-06T11:32:50.057Z,1009.18
2023-05-06T11:33:50.005Z,1009.14
2023-05-06T11:34:49.998Z,1009.03
2023-05-06T11:35:49.922Z,1009.00
2023-05-06T11:36:49.953Z,1009.13
2023-05-06T11:37:50.228Z,1008.94
2023-05-06T11:38:50.032Z,1009.10
2023-05-06T11:39:49.997Z,1008.96
2023-05-06T11:40:49.974Z,1009.01
2023-05-06T11:41:49.892Z,1009.11
2023-05-06T11:42:49.860Z,1009.10
2023-05-06T11:43:50.068Z,1009.11
2023-05-06T11:44:50.091Z,1009.07
2023-05-06T11:45:49.943Z,1009.08
2023-05-06T11:46:49.971Z,1009.06
2023-05-06T11:47:49.949Z,1009.05
2023-05-06T11:48:49.831Z,1009.06
2023-05-06T11:49:50.138Z,1009.05
2023-05-06T11:50:49.961Z,1009.05
2023-05-06T11:51:49.764Z,1009.00
2023-05-06T11:52:49.770Z,1009.04
2023-05-06T11:53:49.834Z,1008.92
2023-05-06T11:54:50.278Z,1008.95
2023-05-06T11:55:49.792Z,1008.98
2023-05-06T11:56:49.770Z,1009.02
2023-05-06T11:57:49.757Z,1008.94
2023-05-06T11:58:49.705Z,1008.91
2023-05-06T11:59:49.791Z,1008.86
2023-05-06T12:00:51.217Z,1008.90
2023-05-06T12:01:49.622Z,1008.86
2023-05-06T12:02:49.807Z,1008.88
2023-05-06T12:03:49.838Z,1008.89
2023-05-06T12:04:49.859Z,1008.71
2023-05-06T12:05:49.648Z,1008.64
2023-05-06T12:06:49.754Z,1008.75
2023-05-06T12:07:49.658Z,1008.69
2023-05-06T12:08:49.573Z,1008.73
2023-05-06T12:09:49.742Z,1008.67
2023-05-06T12:10:49.542Z,1008.64
2023-05-06T12:11:49.556Z,1008.73
2023-05-06T12:12:49.603Z,1008.73
2023-05-06T12:13:49.545Z,1008.76
2023-05-06T12:14:49.513Z,1008.82
2023-05-06T12:15:49.550Z,1008.83
2023-05-06T12:16:49.537Z,1008.93
2023-05-06T12:17:49.503Z,1008.90
2023-05-06T12:18:49.494Z,1008.87
2023-05-06T12:19:49.481Z,1008.84
2023-05-06T12:20:49.437Z,1008.81
2023-05-06T12:21:49.448Z,1008.79
2023-05-06T12:22:49.486Z,1008.75